createdAt,value
2019-03-19T00:00:21.564Z,5.12
2019-03-19T00:02:49.989Z,4.78
2019-03-19T00:05:18.429Z,4.30
2019-03-19T00:07:46.877Z,5.97
2019-03-19T00:10:15.306Z,6.45
2019-03-19T00:12:43.746Z,6.58
2019-03-19T00:15:12.531Z,5.10
2019-03-19T00:17:40.976Z,4.78
2019-03-19T00:20:16.201Z,5.53
2019-03-19T00:22:44.718Z,5.35
2019-03-19T00:25:13.164Z,4.67
2019-03-19T00:27:41.594Z,5.08
2019-03-19T00:30:13.256Z,5.85
2019-03-19T00:32:41.753Z,5.67
2019-03-19T00:35:10.318Z,5.20
2019-03-19T00:37:40.305Z,4.72
2019-03-19T00:40:13.130Z,5.30
2019-03-19T00:42:43.527Z,4.35
2019-03-19T00:45:13.065Z,4.75
2019-03-19T00:47:41.511Z,5.60
2019-03-19T00:50:14.408Z,4.80
2019-03-19T00:52:42.961Z,5.05
2019-03-19T00:55:11.887Z,4.58
2019-03-19T00:57:40.308Z,5.10
2019-03-19T01:00:19.818Z,4.92
2019-03-19T01:02:48.258Z,4.67
2019-03-19T01:05:16.687Z,5.47
2019-03-19T01:07:45.128Z,5.58
2019-03-19T01:10:17.221Z,5.97
2019-03-19T01:12:44.671Z,4.40
2019-03-19T01:15:14.443Z,5.67
2019-03-19T01:17:42.891Z,6.42
2019-03-19T01:20:13.933Z,5.10
2019-03-19T01:22:42.371Z,6.25
2019-03-19T01:25:11.348Z,4.90
2019-03-19T01:27:39.782Z,5.58
2019-03-19T01:30:15.968Z,6.20
2019-03-19T01:32:44.402Z,5.55
2019-03-19T01:35:12.850Z,5.30
2019-03-19T01:37:41.349Z,5.35
2019-03-19T01:40:13.329Z,5.53
2019-03-19T01:42:41.765Z,4.45
2019-03-19T01:45:13.719Z,4.40
2019-03-19T01:47:42.164Z,4.58
2019-03-19T01:50:12.447Z,4.42
2019-03-19T01:52:40.899Z,4.97
2019-03-19T01:55:12.083Z,4.33
2019-03-19T01:57:40.534Z,5.20
2019-03-19T02:00:11.513Z,4.78
2019-03-19T02:02:39.940Z,4.70
2019-03-19T02:05:08.464Z,4.78
2019-03-19T02:07:36.915Z,5.62
2019-03-19T02:10:13.613Z,6.20
2019-03-19T02:12:44.219Z,5.50
2019-03-19T02:15:16.699Z,4.80
2019-03-19T02:17:45.207Z,5.40
2019-03-19T02:20:15.169Z,4.75
2019-03-19T02:22:43.725Z,5.25
2019-03-19T02:25:12.225Z,4.65
2019-03-19T02:27:40.675Z,5.28
2019-03-19T02:30:16.186Z,5.12
2019-03-19T02:32:48.959Z,4.50
2019-03-19T02:35:17.382Z,4.92
2019-03-19T02:37:45.819Z,5.03
2019-03-19T02:40:15.569Z,5.33
2019-03-19T02:42:44.014Z,5.78
2019-03-19T02:45:13.588Z,5.05
2019-03-19T02:47:42.024Z,5.37
2019-03-19T02:50:14.691Z,4.97
2019-03-19T02:52:43.139Z,6.08
2019-03-19T02:55:11.767Z,5.22
2019-03-19T02:57:40.194Z,4.80
2019-03-19T03:00:13.774Z,6.33
2019-03-19T03:02:42.274Z,5.00
2019-03-19T03:05:14.118Z,5.40
2019-03-19T03:07:47.570Z,4.87
2019-03-19T03:10:17.601Z,6.20
2019-03-19T03:12:46.207Z,7.00
2019-03-19T03:15:15.083Z,5.10
2019-03-19T03:17:43.596Z,5.55
2019-03-19T03:20:17.530Z,5.30
2019-03-19T03:22:46.171Z,5.97
2019-03-19T03:25:18.014Z,4.90
2019-03-19T03:27:46.438Z,5.08
2019-03-19T03:30:23.652Z,5.72
2019-03-19T03:32:54.346Z,6.03
2019-03-19T03:35:22.806Z,5.00
2019-03-19T03:37:51.296Z,5.33
2019-03-19T03:40:22.739Z,6.37
2019-03-19T03:42:51.251Z,7.28
2019-03-19T03:45:20.243Z,5.90
2019-03-19T03:47:48.751Z,5.75
2019-03-19T03:50:17.923Z,5.55
2019-03-19T03:52:46.448Z,4.47
2019-03-19T03:55:19.318Z,4.80
2019-03-19T03:57:47.756Z,5.67
2019-03-19T04:00:18.707Z,5.30
2019-03-19T04:02:47.292Z,5.75
2019-03-19T04:05:16.168Z,5.40
2019-03-19T04:07:44.823Z,4.60
2019-03-19T04:10:14.497Z,5.90
2019-03-19T04:12:42.941Z,5.45
2019-03-19T04:15:13.709Z,6.17
2019-03-19T04:17:42.147Z,5.35
2019-03-19T04:20:14.599Z,6.03
2019-03-19T04:22:43.102Z,6.53
2019-03-19T04:25:11.683Z,6.25
2019-03-19T04:27:41.012Z,5.40
2019-03-19T04:30:15.568Z,5.95
2019-03-19T04:32:44.087Z,5.65
2019-03-19T04:35:12.602Z,5.72
2019-03-19T04:37:41.040Z,5.70
2019-03-19T04:40:11.685Z,6.10
2019-03-19T04:42:40.114Z,6.10
2019-03-19T04:45:10.804Z,5.95
2019-03-19T04:47:39.316Z,4.87
2019-03-19T04:50:17.323Z,6.05
2019-03-19T04:52:47.726Z,5.75
2019-03-19T04:55:17.112Z,5.22
2019-03-19T04:57:45.534Z,5.60
2019-03-19T05:00:20.723Z,5.97
2019-03-19T05:02:49.157Z,5.28
2019-03-19T05:05:17.606Z,5.65
2019-03-19T05:07:46.032Z,5.90
2019-03-19T05:10:16.382Z,4.87
2019-03-19T05:12:48.486Z,5.70
2019-03-19T05:15:17.062Z,5.50
2019-03-19T05:17:45.505Z,5.22
2019-03-19T05:20:17.661Z,5.87
2019-03-19T05:22:46.147Z,5.50
2019-03-19T05:25:14.681Z,5.75
2019-03-19T05:27:43.132Z,5.90
2019-03-19T05:30:16.483Z,6.70
2019-03-19T05:32:44.934Z,6.05
2019-03-19T05:35:13.371Z,6.22
2019-03-19T05:37:41.800Z,5.15
2019-03-19T05:40:14.419Z,5.53
2019-03-19T05:42:42.857Z,5.67
2019-03-19T05:45:17.472Z,6.15
2019-03-19T05:47:45.980Z,6.20
2019-03-19T05:50:17.647Z,5.50
2019-03-19T05:52:48.310Z,5.50
2019-03-19T05:55:16.248Z,5.75
2019-03-19T05:57:49.372Z,6.53
2019-03-19T06:00:18.722Z,6.10
2019-03-19T06:02:47.162Z,5.50
2019-03-19T06:05:15.637Z,5.95
2019-03-19T06:07:44.143Z,5.95
2019-03-19T06:10:13.866Z,6.90
2019-03-19T06:12:42.306Z,4.65
2019-03-19T06:15:14.505Z,4.70
2019-03-19T06:17:45.442Z,4.00
2019-03-19T06:20:18.210Z,4.62
2019-03-19T06:22:46.716Z,3.90
2019-03-19T06:25:15.188Z,4.25
2019-03-19T06:27:43.679Z,3.67
2019-03-19T06:30:16.661Z,3.77
2019-03-19T06:32:45.238Z,3.70
2019-03-19T06:35:14.608Z,4.05
2019-03-19T06:37:43.131Z,3.80
2019-03-19T06:40:15.829Z,3.62
2019-03-19T06:42:44.554Z,4.00
2019-03-19T06:45:15.277Z,3.75
2019-03-19T06:47:43.793Z,3.62
2019-03-19T06:50:19.288Z,3.87
2019-03-19T06:52:47.716Z,3.58
2019-03-19T06:55:17.302Z,3.60
2019-03-19T06:57:45.749Z,3.40
2019-03-19T07:00:22.079Z,3.55
2019-03-19T07:02:50.515Z,3.62
2019-03-19T07:05:22.077Z,3.10
2019-03-19T07:07:50.515Z,3.27
2019-03-19T07:10:20.873Z,3.92
2019-03-19T07:12:49.386Z,3.45
2019-03-19T07:15:19.836Z,3.65
2019-03-19T07:17:48.282Z,3.70
2019-03-19T07:20:19.796Z,4.00
2019-03-19T07:22:48.285Z,3.20
2019-03-19T07:25:19.539Z,3.98
2019-03-19T07:27:47.995Z,3.05
2019-03-19T07:30:21.126Z,2.92
2019-03-19T07:32:49.571Z,3.45
2019-03-19T07:35:19.550Z,3.02
2019-03-19T07:37:47.997Z,3.80
2019-03-19T07:40:16.975Z,3.83
2019-03-19T07:42:45.420Z,3.65
2019-03-19T07:45:18.876Z,3.45
2019-03-19T07:47:47.355Z,3.52
2019-03-19T07:50:18.234Z,3.65
2019-03-19T07:52:48.225Z,3.75
2019-03-19T07:55:16.821Z,3.12
2019-03-19T07:57:45.405Z,3.15
2019-03-19T08:00:18.316Z,4.00
2019-03-19T08:02:46.773Z,3.45
2019-03-19T08:05:15.359Z,3.67
2019-03-19T08:07:44.141Z,3.02
2019-03-19T08:10:17.540Z,3.42
2019-03-19T08:12:45.995Z,3.70
2019-03-19T08:15:19.050Z,3.75
2019-03-19T08:17:47.462Z,3.40
2019-03-19T08:20:17.821Z,3.02
2019-03-19T08:22:46.327Z,4.22
2019-03-19T08:25:15.609Z,3.67
2019-03-19T08:27:44.065Z,3.37
2019-03-19T08:30:19.861Z,3.27
2019-03-19T08:32:48.308Z,3.27
2019-03-19T08:35:16.742Z,3.50
2019-03-19T08:37:45.251Z,3.92
2019-03-19T08:40:18.769Z,3.60
2019-03-19T08:42:47.286Z,3.75
2019-03-19T08:45:17.264Z,3.52
2019-03-19T08:47:45.703Z,3.17
2019-03-19T08:50:22.081Z,3.52
2019-03-19T08:52:50.521Z,4.00
2019-03-19T08:55:19.113Z,3.25
2019-03-19T08:57:47.624Z,3.50
2019-03-19T09:00:18.592Z,3.27
2019-03-19T09:02:47.085Z,4.03
2019-03-19T09:05:15.595Z,4.28
2019-03-19T09:07:44.102Z,3.10
2019-03-19T09:10:14.949Z,4.35
2019-03-19T09:12:43.403Z,4.10
2019-03-19T09:15:13.276Z,2.92
2019-03-19T09:17:41.743Z,3.55
2019-03-19T09:20:12.515Z,3.98
2019-03-19T09:22:41.117Z,4.10
2019-03-19T09:25:10.873Z,4.17
2019-03-19T09:27:39.570Z,3.25
2019-03-19T09:30:25.078Z,4.08
2019-03-19T09:32:53.514Z,2.08
2019-03-19T09:35:21.963Z,3.15
2019-03-19T09:37:58.326Z,2.87
2019-03-19T09:40:21.516Z,2.50
2019-03-19T09:42:49.956Z,2.30
2019-03-19T09:45:18.731Z,2.52
2019-03-19T09:47:47.323Z,2.52
2019-03-19T09:50:18.159Z,3.30
2019-03-19T09:52:46.599Z,2.52
2019-03-19T09:55:15.094Z,2.62
2019-03-19T09:57:43.530Z,3.12
2019-03-19T10:00:23.181Z,2.42
2019-03-19T10:02:51.704Z,2.65
2019-03-19T10:05:20.218Z,2.95
2019-03-19T10:07:48.682Z,2.42
2019-03-19T10:10:23.189Z,2.60
2019-03-19T10:12:51.705Z,2.87
2019-03-19T10:15:20.206Z,1.87
2019-03-19T10:17:48.641Z,2.22
2019-03-19T10:20:18.480Z,2.10
2019-03-19T10:22:47.010Z,2.47
2019-03-19T10:25:16.469Z,2.50
2019-03-19T10:27:45.186Z,2.50
2019-03-19T10:30:18.559Z,2.62
2019-03-19T10:32:47.139Z,2.05
2019-03-19T10:35:15.737Z,3.15
2019-03-19T10:37:44.235Z,1.85
2019-03-19T10:40:19.798Z,2.50
2019-03-19T10:42:48.239Z,2.05
2019-03-19T10:45:24.638Z,2.77
2019-03-19T10:47:53.166Z,3.37
2019-03-19T10:50:25.530Z,2.17
2019-03-19T10:52:53.986Z,2.30
2019-03-19T10:55:22.482Z,2.75
2019-03-19T10:57:50.940Z,2.30
2019-03-19T11:00:26.243Z,2.10
2019-03-19T11:02:54.685Z,2.62
2019-03-19T11:05:23.858Z,2.90
2019-03-19T11:07:52.583Z,2.30
2019-03-19T11:10:21.148Z,2.50
2019-03-19T11:12:49.654Z,2.60
2019-03-19T11:15:28.475Z,2.12
2019-03-19T11:17:56.913Z,1.52
2019-03-19T11:20:25.507Z,1.90
2019-03-19T11:22:56.604Z,1.90
2019-03-19T11:25:26.293Z,1.80
2019-03-19T11:27:54.804Z,2.10
2019-03-19T11:30:27.302Z,2.70
2019-03-19T11:32:55.756Z,2.08
2019-03-19T11:35:24.371Z,2.08
2019-03-19T11:37:52.815Z,2.35
2019-03-19T11:40:22.496Z,2.10
2019-03-19T11:42:51.774Z,2.12
2019-03-19T11:45:22.314Z,1.90
2019-03-19T11:47:53.110Z,2.55
2019-03-19T11:50:29.435Z,2.17
2019-03-19T11:52:57.965Z,1.82
2019-03-19T11:55:26.389Z,1.80
2019-03-19T11:57:57.343Z,2.27
2019-03-19T12:00:46.814Z,1.98
2019-03-19T12:03:16.613Z,2.33
2019-03-19T12:05:45.279Z,1.85
2019-03-19T12:08:13.718Z,1.90
2019-03-19T12:10:42.160Z,1.70
2019-03-19T12:13:10.659Z,2.02
2019-03-19T12:15:39.105Z,1.92
2019-03-19T12:18:07.713Z,1.87
2019-03-19T12:20:36.160Z,2.12
2019-03-19T12:23:05.005Z,2.00
2019-03-19T12:25:33.460Z,2.02
2019-03-19T12:28:01.908Z,2.02
2019-03-19T12:30:30.333Z,2.12
2019-03-19T12:32:58.779Z,2.15
2019-03-19T12:35:27.213Z,1.62
2019-03-19T12:37:55.655Z,1.80
2019-03-19T12:40:35.964Z,2.17
2019-03-19T12:42:55.114Z,2.22
2019-03-19T12:45:24.585Z,2.45
2019-03-19T12:47:53.020Z,2.27
2019-03-19T12:50:25.519Z,2.22
2019-03-19T12:52:53.966Z,2.22
2019-03-19T12:55:22.496Z,1.80
2019-03-19T12:57:51.749Z,2.10
2019-03-19T13:00:33.488Z,1.92
2019-03-19T13:02:54.511Z,2.05
2019-03-19T13:05:23.024Z,1.95
2019-03-19T13:07:51.533Z,2.15
2019-03-19T13:10:23.882Z,2.95
2019-03-19T13:12:52.322Z,2.90
2019-03-19T13:15:21.429Z,2.58
2019-03-19T13:17:49.932Z,3.02
2019-03-19T13:20:19.225Z,2.52
2019-03-19T13:22:47.658Z,3.30
2019-03-19T13:25:24.141Z,3.33
2019-03-19T13:27:52.917Z,3.77
2019-03-19T13:30:28.822Z,2.95
2019-03-19T13:32:57.263Z,2.33
2019-03-19T13:35:28.495Z,2.30
2019-03-19T13:37:56.953Z,1.95
2019-03-19T13:40:25.470Z,2.45
2019-03-19T13:42:53.908Z,2.20
2019-03-19T13:45:23.289Z,2.55
2019-03-19T13:47:51.730Z,2.40
2019-03-19T13:50:21.079Z,2.50
2019-03-19T13:52:49.519Z,2.08
2019-03-19T13:55:23.257Z,2.15
2019-03-19T13:57:51.863Z,2.40
2019-03-19T14:00:20.858Z,2.47
2019-03-19T14:02:49.289Z,2.12
2019-03-19T14:05:18.490Z,2.67
2019-03-19T14:07:46.937Z,2.50
2019-03-19T14:10:21.514Z,2.08
2019-03-19T14:12:49.954Z,2.47
2019-03-19T14:15:22.650Z,2.25
2019-03-19T14:17:51.095Z,2.42
2019-03-19T14:20:19.544Z,2.45
2019-03-19T14:22:47.974Z,2.27
2019-03-19T14:25:17.174Z,2.27
2019-03-19T14:27:45.876Z,2.58
2019-03-19T14:30:22.979Z,2.65
2019-03-19T14:32:51.399Z,2.17
2019-03-19T14:35:19.846Z,1.80
2019-03-19T14:37:48.370Z,2.35
2019-03-19T14:40:24.623Z,2.47
2019-03-19T14:42:53.141Z,2.17
2019-03-19T14:45:21.643Z,2.40
2019-03-19T14:47:50.082Z,2.65
2019-03-19T14:50:22.893Z,2.55
2019-03-19T14:52:51.338Z,2.85
2019-03-19T14:55:19.859Z,2.47
2019-03-19T14:57:50.882Z,2.62
2019-03-19T15:00:22.485Z,2.98
2019-03-19T15:02:50.920Z,2.87
2019-03-19T15:05:19.615Z,2.22
2019-03-19T15:07:49.102Z,2.75
2019-03-19T15:10:18.786Z,2.65
2019-03-19T15:12:47.210Z,2.47
2019-03-19T15:15:20.694Z,2.65
2019-03-19T15:17:49.132Z,3.10
2019-03-19T15:20:25.846Z,2.92
2019-03-19T15:22:54.282Z,2.33
2019-03-19T15:25:22.718Z,3.12
2019-03-19T15:27:51.203Z,2.85
2019-03-19T15:30:20.543Z,2.58
2019-03-19T15:32:49.163Z,2.83
2019-03-19T15:35:17.614Z,2.42
2019-03-19T15:37:46.042Z,2.90
2019-03-19T15:40:19.420Z,3.30
2019-03-19T15:42:47.862Z,3.05
2019-03-19T15:45:21.045Z,2.87
2019-03-19T15:47:49.486Z,2.58
2019-03-19T15:50:17.931Z,3.20
2019-03-19T15:52:46.362Z,3.27
2019-03-19T15:55:15.339Z,3.70
2019-03-19T15:57:43.959Z,2.62
2019-03-19T16:00:14.333Z,3.27
2019-03-19T16:02:42.843Z,2.77
2019-03-19T16:05:12.819Z,2.83
2019-03-19T16:07:41.421Z,3.65
2019-03-19T16:10:19.063Z,3.33
2019-03-19T16:12:47.507Z,3.80
2019-03-19T16:15:18.539Z,3.10
2019-03-19T16:17:46.976Z,3.60
2019-03-19T16:20:16.263Z,3.02
2019-03-19T16:22:45.195Z,4.20
2019-03-19T16:25:13.919Z,3.42
2019-03-19T16:27:42.362Z,3.40
2019-03-19T16:30:15.436Z,3.65
2019-03-19T16:32:43.942Z,3.67
2019-03-19T16:35:13.602Z,2.98
2019-03-19T16:37:42.120Z,3.50
2019-03-19T16:40:18.727Z,4.17
2019-03-19T16:42:47.314Z,3.75
2019-03-19T16:45:17.842Z,3.33
2019-03-19T16:47:46.017Z,3.22
2019-03-19T16:50:16.107Z,3.62
2019-03-19T16:52:44.539Z,4.12
2019-03-19T16:55:16.866Z,3.30
2019-03-19T16:57:45.300Z,4.10
2019-03-19T17:00:18.615Z,3.45
2019-03-19T17:02:47.045Z,3.55
2019-03-19T17:05:16.741Z,3.37
2019-03-19T17:07:45.238Z,3.40
2019-03-19T17:10:15.731Z,3.87
2019-03-19T17:12:44.196Z,3.72
2019-03-19T17:15:14.773Z,3.92
2019-03-19T17:17:43.359Z,3.42
2019-03-19T17:20:13.344Z,3.83
2019-03-19T17:22:43.714Z,4.75
2019-03-19T17:25:14.186Z,4.53
2019-03-19T17:27:42.638Z,4.60
2019-03-19T17:30:20.039Z,4.45
2019-03-19T17:32:48.484Z,4.12
2019-03-19T17:35:17.047Z,6.65
2019-03-19T17:37:45.812Z,5.75
2019-03-19T17:40:15.203Z,5.42
2019-03-19T17:42:43.723Z,5.08
2019-03-19T17:45:13.603Z,5.35
2019-03-19T17:47:42.116Z,4.50
2019-03-19T17:50:21.406Z,4.83
2019-03-19T17:52:51.783Z,3.30
2019-03-19T17:55:20.365Z,4.00
2019-03-19T17:57:48.796Z,4.47
2019-03-19T18:00:21.239Z,4.10
2019-03-19T18:02:49.680Z,3.65
2019-03-19T18:05:18.188Z,4.28
2019-03-19T18:07:46.630Z,3.72
2019-03-19T18:10:15.210Z,3.22
2019-03-19T18:12:43.632Z,3.95
2019-03-19T18:15:13.863Z,4.03
2019-03-19T18:17:42.307Z,3.67
2019-03-19T18:20:15.190Z,4.42
2019-03-19T18:22:43.639Z,4.15
2019-03-19T18:25:14.271Z,4.60
2019-03-19T18:27:42.719Z,5.75
2019-03-19T18:30:20.022Z,5.40
2019-03-19T18:32:48.462Z,4.62
2019-03-19T18:35:16.903Z,4.20
2019-03-19T18:37:45.411Z,3.98
2019-03-19T18:40:14.874Z,4.20
2019-03-19T18:42:45.568Z,5.05
2019-03-19T18:45:15.120Z,3.83
2019-03-19T18:47:43.554Z,4.60
2019-03-19T18:50:19.616Z,4.35
2019-03-19T18:52:48.126Z,4.83
2019-03-19T18:55:16.917Z,5.08
2019-03-19T18:57:45.355Z,4.87
2019-03-19T19:00:23.881Z,5.20
2019-03-19T19:03:01.574Z,5.40
2019-03-19T19:05:30.019Z,5.28
2019-03-19T19:07:58.449Z,4.87
2019-03-19T19:10:26.878Z,4.90
2019-03-19T19:12:55.330Z,5.05
2019-03-19T19:15:24.378Z,4.87
2019-03-19T19:17:52.806Z,4.70
2019-03-19T19:20:21.252Z,4.95
2019-03-19T19:22:49.695Z,5.00
2019-03-19T19:25:19.675Z,5.05
2019-03-19T19:27:48.187Z,5.15
2019-03-19T19:30:26.730Z,5.60
2019-03-19T19:33:01.704Z,4.72
2019-03-19T19:35:25.330Z,4.90
2019-03-19T19:37:53.758Z,4.17
2019-03-19T19:40:22.211Z,5.67
2019-03-19T19:42:50.720Z,6.25
2019-03-19T19:45:38.498Z,5.78
2019-03-19T19:48:19.329Z,5.70
2019-03-19T19:50:47.767Z,5.30
2019-03-19T19:53:16.210Z,6.70
2019-03-19T19:55:44.638Z,6.22
2019-03-19T19:58:13.083Z,6.83
2019-03-19T20:00:41.513Z,7.17
2019-03-19T20:03:12.627Z,6.33
2019-03-19T20:05:40.196Z,6.20
2019-03-19T20:08:08.618Z,6.78
2019-03-19T20:10:38.637Z,7.72
2019-03-19T20:13:07.102Z,6.70
2019-03-19T20:15:35.822Z,6.55
2019-03-19T20:18:04.328Z,6.50
2019-03-19T20:20:35.281Z,6.20
2019-03-19T20:23:03.716Z,6.70
2019-03-19T20:25:32.148Z,6.58
2019-03-19T20:28:00.589Z,7.78
2019-03-19T20:30:29.306Z,6.90
2019-03-19T20:32:57.749Z,7.67
2019-03-19T20:35:26.179Z,8.23
2019-03-19T20:37:54.680Z,7.47
2019-03-19T20:40:23.145Z,8.23
2019-03-19T20:42:51.579Z,7.92
2019-03-19T20:45:23.187Z,8.20
2019-03-19T20:47:51.615Z,8.50
2019-03-19T20:50:25.958Z,9.45
2019-03-19T20:52:54.463Z,7.80
2019-03-19T20:55:22.911Z,7.22
2019-03-19T20:57:51.411Z,7.15
2019-03-19T21:00:26.144Z,7.28
2019-03-19T21:02:55.474Z,7.95
2019-03-19T21:05:23.908Z,8.78
2019-03-19T21:07:52.426Z,7.65
2019-03-19T21:10:23.150Z,8.55
2019-03-19T21:12:51.665Z,8.55
2019-03-19T21:15:27.686Z,9.15
2019-03-19T21:17:56.410Z,8.58
2019-03-19T21:20:24.848Z,8.78
2019-03-19T21:22:53.619Z,9.13
2019-03-19T21:25:22.067Z,9.08
2019-03-19T21:27:50.570Z,9.63
2019-03-19T21:30:22.963Z,8.60
2019-03-19T21:32:51.481Z,9.20
2019-03-19T21:35:23.965Z,9.35
2019-03-19T21:37:52.482Z,9.05
2019-03-19T21:40:21.111Z,9.15
2019-03-19T21:42:51.491Z,9.93
2019-03-19T21:45:23.071Z,9.35
2019-03-19T21:47:51.661Z,9.75
2019-03-19T21:50:24.450Z,10.55
2019-03-19T21:52:52.887Z,11.10
2019-03-19T21:55:21.328Z,11.38
2019-03-19T21:57:49.768Z,12.28
2019-03-19T22:00:20.330Z,10.63
2019-03-19T22:02:48.781Z,12.13
2019-03-19T22:05:17.226Z,12.07
2019-03-19T22:07:45.656Z,12.33
2019-03-19T22:10:15.736Z,11.88
2019-03-19T22:12:44.183Z,13.13
2019-03-19T22:15:17.761Z,13.65
2019-03-19T22:17:46.266Z,13.45
2019-03-19T22:20:15.256Z,13.00
2019-03-19T22:22:43.694Z,13.45
2019-03-19T22:25:13.865Z,13.32
2019-03-19T22:27:42.304Z,14.18
2019-03-19T22:30:18.916Z,14.47
2019-03-19T22:32:47.427Z,14.25
2019-03-19T22:35:18.859Z,13.48
2019-03-19T22:37:50.132Z,13.30
2019-03-19T22:40:18.857Z,14.95
2019-03-19T22:42:47.308Z,14.20
2019-03-19T22:45:19.588Z,15.58
2019-03-19T22:47:48.439Z,14.18
2019-03-19T22:50:17.841Z,15.03
2019-03-19T22:52:46.611Z,14.83
2019-03-19T22:55:15.902Z,15.03
2019-03-19T22:57:44.618Z,14.63
2019-03-19T23:00:31.493Z,15.13
2019-03-19T23:03:00.023Z,14.60
2019-03-19T23:05:28.517Z,15.60
2019-03-19T23:07:58.876Z,15.30
2019-03-19T23:10:27.321Z,17.00
2019-03-19T23:12:55.831Z,20.57
2019-03-19T23:15:24.355Z,22.82
2019-03-19T23:17:52.786Z,29.30
2019-03-19T23:20:21.239Z,25.05
2019-03-19T23:22:49.682Z,21.00
2019-03-19T23:25:20.082Z,19.45
2019-03-19T23:27:48.531Z,21.45
2019-03-19T23:30:19.369Z,21.48
2019-03-19T23:32:47.819Z,22.10
2019-03-19T23:35:16.247Z,24.25
2019-03-19T23:37:44.703Z,23.57
2019-03-19T23:40:15.491Z,26.42
2019-03-19T23:42:46.543Z,31.33
2019-03-19T23:45:15.057Z,28.98
2019-03-19T23:47:43.554Z,26.57
2019-03-19T23:50:12.930Z,23.98
2019-03-19T23:52:41.437Z,24.23
2019-03-19T23:55:10.421Z,22.73
2019-03-19T23:57:39.001Z,26.02
